Terminal Aerodrome Forecast
Issued by NWS Charleston, WV

Current Version | Previous Version | Text Only | Print | Product List | Glossary Off
Versions: 1 2 3 4 5 6 7 8 9 10 11 12 13 14 15 16 17 18 19 20 21

000
FTUS41 KRLX 220200 AAA
TAFHTS
TAF AMD
KHTS 220221Z 2202/2224 10003KT P6SM SCT250
     FM221200 15004KT P6SM BKN050
     FM221500 20006KT P6SM BKN040
     FM222000 19006KT P6SM SCT070=

USA.gov is the U.S. government's official web portal to all federal, state and local government web resources and services.